This is the latest recevied weather packets stored in our database for station/object ZL1CTS-13. If no packets are shown the sender has not sent any weather packets the latest 10 day(s).
| Time | Temp. | Humidity | Pressure | Rain* | Wind** | Luminosity | Snow |
|---|---|---|---|---|---|---|---|
| 1777430404 | 19.44° C | 82% | 1018 hPa | 0 mm | - | - | - |
| 1777429804 | 20° C | 84% | 1018.1 hPa | 0 mm | - | - | - |
| 1777429204 | 18.89° C | 88% | 1018.1 hPa | 0 mm | - | - | - |
| 1777428605 | 18.33° C | 88% | 1018.2 hPa | 0 mm | - | - | - |
| 1777428004 | 17.78° C | 87% | 1018.2 hPa | 0 mm | - | - | - |
| 1777427407 | 18.33° C | 87% | 1018.3 hPa | 0 mm | - | - | - |
| 1777426805 | 18.33° C | 85% | 1018.4 hPa | 0 mm | - | - | - |
| 1777426204 | 18.89° C | 81% | 1018.5 hPa | 0 mm | - | - | - |
| 1777425604 | 20° C | 80% | 1018.6 hPa | 0 mm | - | - | - |
| 1777425004 | 19.44° C | 84% | 1018.6 hPa | 0 mm | - | - | - |
| 1777424404 | 20.56° C | 79% | 1018.9 hPa | 0 mm | - | - | - |
| 1777423804 | 21.67° C | 76% | 1018.9 hPa | 0 mm | - | - | - |
| 1777423204 | 21.11° C | 79% | 1018.7 hPa | 0 mm | - | - | - |
| 1777422607 | 20° C | 81% | 1018.8 hPa | 0 mm | - | - | - |
| 1777422005 | 19.44° C | 84% | 1019 hPa | 0 mm | - | - | - |
| 1777421404 | 20° C | 79% | 1019.2 hPa | 0 mm | - | - | - |
| 1777420804 | 21.11° C | 78% | 1019.1 hPa | 0 mm | - | - | - |
| 1777420203 | 20.56° C | 80% | 1019.1 hPa | 0 mm | - | - | - |
| 1777419604 | 20° C | 84% | 1019.2 hPa | 0 mm | - | - | - |
| 1777419004 | 18.33° C | 89% | 1019.1 hPa | 0 mm | - | - | - |
| 1777418404 | 18.89° C | 86% | 1019.2 hPa | 0 mm | - | - | - |
| 1777417804 | 19.44° C | 82% | 1019.2 hPa | 0 mm | - | - | - |
| 1777417203 | 20° C | 80% | 1019.3 hPa | 0 mm | - | - | - |
| 1777416604 | 20° C | 81% | 1019.3 hPa | 0 mm | - | - | - |
| 1777416004 | 20° C | 84% | 1019.3 hPa | 0 mm | - | - | - |
* Rain latest hour (hover to see other rain measurements)
** Current wind speed in m/s (hover to see current wind gust speed)